Houghton on the Hill, United Kingdom
Current Conditions -  °F | °C
As of 12:20 PM on Thursday 29 Jan 2015 (Local Time) from EGNX Reporting Station
Light Snow Light Snow  
Wind Chill: 25°   Ceiling: 1200
Heat Index: 36°   Visibility: 3mi
Dew Point: 34°   Wind: 21mph
Humidity: 93%   Direction: 250°WSW
Pressure: 28.91"   Gusts: NA
Location:  52.63°N, 1°W
Report Text: EGNX 291220Z 25018KT 5000 -RASN BKN012 02/01 Q0979
Loading
Personal Weather Stations






























Interactive Weather Map New forecast layout! Learn more

10-Day Weather Forecast

Advertisements
Track Severe Weather on mobile